createdAt,value
2019-02-12T00:01:16.630Z,4.53
2019-02-12T00:03:47.865Z,4.51
2019-02-12T00:06:18.124Z,4.49
2019-02-12T00:08:48.555Z,4.47
2019-02-12T00:11:19.698Z,4.48
2019-02-12T00:14:01.066Z,4.53
2019-02-12T00:16:31.277Z,4.56
2019-02-12T00:19:02.204Z,4.51
2019-02-12T00:21:34.380Z,4.44
2019-02-12T00:24:05.682Z,4.47
2019-02-12T00:26:39.735Z,4.47
2019-02-12T00:29:12.522Z,4.45
2019-02-12T00:31:44.435Z,4.40
2019-02-12T00:34:18.269Z,4.41
2019-02-12T00:36:49.594Z,4.53
2019-02-12T00:39:20.957Z,4.47
2019-02-12T00:41:52.742Z,4.45
2019-02-12T00:44:29.415Z,4.53
2019-02-12T00:47:02.694Z,4.54
2019-02-12T00:49:35.328Z,4.47
2019-02-12T00:52:07.395Z,4.37
2019-02-12T00:54:37.823Z,4.40
2019-02-12T00:57:11.687Z,4.41
2019-02-12T00:59:42.095Z,4.40
2019-02-12T01:02:14.283Z,4.37
2019-02-12T01:04:50.341Z,4.40
2019-02-12T01:07:21.630Z,4.32
2019-02-12T01:09:54.555Z,4.38
2019-02-12T01:12:52.363Z,4.34
2019-02-12T01:15:24.937Z,4.43
2019-02-12T01:17:55.269Z,4.37
2019-02-12T01:20:25.563Z,4.47
2019-02-12T01:23:04.413Z,4.40
2019-02-12T01:25:34.979Z,4.50
2019-02-12T01:28:05.647Z,4.48
2019-02-12T01:30:37.160Z,4.41
2019-02-12T01:33:08.518Z,4.36
2019-02-12T01:35:43.955Z,4.37
2019-02-12T01:38:15.695Z,4.31
2019-02-12T01:40:48.188Z,4.39
2019-02-12T01:43:21.049Z,4.42
2019-02-12T01:45:51.279Z,4.39
2019-02-12T01:48:21.421Z,4.34
2019-02-12T01:50:54.475Z,4.44
2019-02-12T01:53:25.963Z,4.29
2019-02-12T01:55:56.125Z,4.35
2019-02-12T01:58:26.371Z,4.28
2019-02-12T02:00:57.759Z,4.37
2019-02-12T02:03:30.955Z,4.27
2019-02-12T02:06:06.559Z,4.31
2019-02-12T02:08:48.998Z,4.30
2019-02-12T02:11:22.579Z,4.34
2019-02-12T02:13:56.806Z,4.31
2019-02-12T02:16:26.991Z,4.29
2019-02-12T02:18:57.301Z,4.35
2019-02-12T02:21:27.424Z,4.27
2019-02-12T02:23:57.537Z,4.23
2019-02-12T02:26:27.712Z,4.37
2019-02-12T02:28:59.953Z,4.32
2019-02-12T02:31:30.106Z,4.47
2019-02-12T02:34:00.487Z,4.40
2019-02-12T02:36:30.660Z,4.28
2019-02-12T02:39:00.799Z,4.23
2019-02-12T02:41:33.096Z,4.23
2019-02-12T02:44:03.720Z,4.21
2019-02-12T02:46:34.294Z,4.15
2019-02-12T02:49:05.864Z,4.15
2019-02-12T02:51:36.059Z,4.05
2019-02-12T02:54:06.262Z,3.95
2019-02-12T02:56:36.386Z,3.99
2019-02-12T02:59:06.648Z,3.95
2019-02-12T03:01:37.160Z,3.95
2019-02-12T03:04:07.350Z,3.94
2019-02-12T03:06:37.581Z,3.89
2019-02-12T03:09:08.728Z,3.76
2019-02-12T03:11:40.113Z,3.80
2019-02-12T03:14:11.758Z,3.82
2019-02-12T03:16:41.914Z,3.90
2019-02-12T03:19:12.109Z,3.82
2019-02-12T03:21:42.294Z,3.72
2019-02-12T03:24:12.620Z,3.69
2019-02-12T03:26:42.840Z,3.68
2019-02-12T03:29:15.399Z,3.66
2019-02-12T03:31:45.588Z,3.66
2019-02-12T03:34:17.208Z,3.56
2019-02-12T03:36:47.555Z,3.50
2019-02-12T03:39:17.733Z,3.46
2019-02-12T03:41:53.199Z,3.52
2019-02-12T03:44:26.245Z,3.49
2019-02-12T03:46:57.156Z,3.51
2019-02-12T03:49:27.464Z,3.42
2019-02-12T03:51:58.861Z,3.51
2019-02-12T03:54:29.230Z,3.52
2019-02-12T03:57:06.033Z,3.50
2019-02-12T03:59:55.540Z,3.48
2019-02-12T04:02:25.889Z,3.53
2019-02-12T04:04:56.555Z,3.49
2019-02-12T04:07:28.067Z,3.53
2019-02-12T04:10:02.715Z,3.44
2019-02-12T04:12:34.458Z,3.54
2019-02-12T04:15:04.818Z,3.48
2019-02-12T04:17:37.056Z,3.49
2019-02-12T04:20:07.844Z,3.53
2019-02-12T04:22:42.677Z,3.52
2019-02-12T04:25:15.504Z,3.51
2019-02-12T04:27:46.393Z,3.50
2019-02-12T04:30:16.977Z,3.52
2019-02-12T04:32:50.452Z,3.42
2019-02-12T04:35:20.766Z,3.39
2019-02-12T04:37:55.828Z,3.38
2019-02-12T04:40:26.635Z,3.48
2019-02-12T04:42:58.780Z,3.60
2019-02-12T04:45:28.986Z,3.60
2019-02-12T04:47:59.264Z,3.50
2019-02-12T04:50:30.906Z,3.53
2019-02-12T04:53:02.132Z,3.56
2019-02-12T04:55:32.472Z,3.55
2019-02-12T04:58:05.317Z,3.56
2019-02-12T05:00:35.504Z,3.67
2019-02-12T05:03:11.851Z,3.63
2019-02-12T05:05:43.427Z,3.58
2019-02-12T05:08:15.387Z,3.53
2019-02-12T05:10:56.640Z,3.59
2019-02-12T05:13:27.094Z,3.66
2019-02-12T05:15:57.285Z,3.57
2019-02-12T05:18:29.058Z,3.44
2019-02-12T05:20:59.574Z,3.56
2019-02-12T05:23:29.833Z,3.54
2019-02-12T05:26:01.531Z,3.58
2019-02-12T05:28:31.778Z,3.63
2019-02-12T05:31:02.459Z,3.71
2019-02-12T05:33:35.524Z,3.65
2019-02-12T05:36:08.636Z,3.59
2019-02-12T05:38:41.994Z,3.45
2019-02-12T05:41:16.161Z,3.52
2019-02-12T05:43:46.343Z,3.48
2019-02-12T05:46:16.666Z,3.50
2019-02-12T05:48:49.448Z,3.47
2019-02-12T05:51:19.631Z,3.39
2019-02-12T05:53:49.810Z,3.40
2019-02-12T05:56:20.632Z,3.50
2019-02-12T05:58:51.488Z,3.49
2019-02-12T06:01:25.887Z,3.56
2019-02-12T06:03:56.185Z,3.55
2019-02-12T06:06:27.354Z,3.64
2019-02-12T06:09:00.691Z,3.57
2019-02-12T06:11:33.148Z,3.61
2019-02-12T06:14:03.464Z,3.54
2019-02-12T06:16:33.654Z,3.62
2019-02-12T06:19:03.807Z,3.57
2019-02-12T06:21:36.938Z,3.66
2019-02-12T06:24:07.431Z,3.62
2019-02-12T06:26:38.021Z,3.49
2019-02-12T06:29:08.543Z,3.54
2019-02-12T06:31:38.721Z,3.52
2019-02-12T06:34:08.837Z,3.51
2019-02-12T06:36:39.010Z,3.61
2019-02-12T06:39:09.495Z,3.60
2019-02-12T06:41:40.383Z,3.54
2019-02-12T06:44:10.491Z,3.49
2019-02-12T06:46:42.274Z,3.54
2019-02-12T06:49:13.629Z,3.57
2019-02-12T06:51:43.771Z,3.54
2019-02-12T06:54:15.020Z,3.53
2019-02-12T06:56:45.634Z,3.55
2019-02-12T06:59:15.978Z,3.52
2019-02-12T07:01:46.152Z,3.57
2019-02-12T07:04:26.624Z,3.53
2019-02-12T07:07:28.421Z,3.57
2019-02-12T07:10:03.006Z,3.62
2019-02-12T07:13:04.043Z,3.66
2019-02-12T07:15:47.672Z,3.65
2019-02-12T07:18:59.468Z,3.60
2019-02-12T07:22:06.714Z,3.66
2019-02-12T07:25:35.420Z,3.73
2019-02-12T07:28:49.996Z,3.78
2019-02-12T07:32:04.187Z,3.76
2019-02-12T07:35:20.023Z,3.95
2019-02-12T07:38:36.102Z,3.93
2019-02-12T07:41:27.851Z,4.15
2019-02-12T07:44:43.953Z,4.28
2019-02-12T07:47:21.991Z,4.12
2019-02-12T07:50:36.406Z,3.90
2019-02-12T07:53:46.372Z,3.94
2019-02-12T07:57:17.508Z,4.02
2019-02-12T08:00:10.734Z,4.08
2019-02-12T08:02:50.973Z,4.19
2019-02-12T08:05:45.648Z,4.03
2019-02-12T08:08:55.800Z,4.08
2019-02-12T08:11:42.611Z,4.32
2019-02-12T08:15:06.896Z,4.26
2019-02-12T08:18:14.868Z,4.37
2019-02-12T08:21:31.495Z,4.20
2019-02-12T08:24:31.173Z,4.23
2019-02-12T08:28:08.309Z,4.10
2019-02-12T08:31:25.443Z,4.25
2019-02-12T08:34:50.408Z,4.39
2019-02-12T08:37:53.280Z,4.37
2019-02-12T08:41:04.103Z,4.23
2019-02-12T08:44:00.211Z,4.28
2019-02-12T08:47:15.527Z,4.37
2019-02-12T08:50:24.652Z,4.54
2019-02-12T08:53:56.369Z,4.63
2019-02-12T08:56:33.083Z,4.51
2019-02-12T08:59:42.837Z,4.74
2019-02-12T09:03:03.253Z,4.75
2019-02-12T09:06:07.050Z,4.81
2019-02-12T09:09:00.716Z,4.86
2019-02-12T09:12:30.538Z,4.87
2019-02-12T09:15:29.557Z,4.97
2019-02-12T09:18:23.181Z,4.99
2019-02-12T09:21:31.202Z,4.95
2019-02-12T09:24:46.516Z,4.92
2019-02-12T09:27:42.157Z,5.05
2019-02-12T09:30:53.030Z,5.24
2019-02-12T09:34:02.184Z,5.13
2019-02-12T09:37:07.385Z,5.40
2019-02-12T09:40:18.834Z,5.61
2019-02-12T09:43:28.502Z,5.55
2019-02-12T09:46:27.820Z,5.48
2019-02-12T09:49:46.789Z,5.54
2019-02-12T09:52:56.149Z,5.43
2019-02-12T09:55:42.479Z,5.48
2019-02-12T09:58:30.199Z,5.56
2019-02-12T10:01:10.743Z,5.55
2019-02-12T10:04:08.237Z,5.40
2019-02-12T10:07:24.262Z,5.45
2019-02-12T10:10:20.285Z,5.79
2019-02-12T10:13:22.209Z,5.97
2019-02-12T10:16:09.646Z,5.84
2019-02-12T10:19:11.471Z,5.73
2019-02-12T10:22:06.899Z,5.75
2019-02-12T10:24:55.137Z,5.85
2019-02-12T10:28:08.940Z,5.85
2019-02-12T10:31:14.562Z,6.06
2019-02-12T10:33:47.172Z,6.05
2019-02-12T10:36:17.980Z,5.85
2019-02-12T10:38:48.679Z,5.99
2019-02-12T10:41:20.933Z,6.09
2019-02-12T10:43:51.270Z,6.10
2019-02-12T10:46:21.375Z,6.33
2019-02-12T10:48:53.905Z,6.40
2019-02-12T10:51:24.110Z,6.18
2019-02-12T10:53:54.323Z,6.05
2019-02-12T10:56:24.604Z,6.17
2019-02-12T10:58:56.440Z,6.27
2019-02-12T11:01:27.198Z,6.57
2019-02-12T11:03:58.907Z,6.56
2019-02-12T11:06:29.308Z,6.46
2019-02-12T11:08:59.602Z,6.43
2019-02-12T11:11:34.175Z,6.33
2019-02-12T11:14:06.121Z,6.38
2019-02-12T11:16:36.668Z,6.51
2019-02-12T11:19:06.887Z,6.49
2019-02-12T11:21:37.018Z,6.50
2019-02-12T11:24:07.468Z,6.48
2019-02-12T11:26:47.936Z,6.44
2019-02-12T11:29:24.382Z,6.57
2019-02-12T11:31:59.050Z,6.63
2019-02-12T11:34:32.000Z,6.56
2019-02-12T11:37:03.448Z,6.54
2019-02-12T11:39:36.717Z,6.54
2019-02-12T11:42:10.432Z,6.80
2019-02-12T11:44:45.197Z,6.88
2019-02-12T11:47:27.611Z,6.92
2019-02-12T11:50:05.436Z,6.80
2019-02-12T11:52:36.220Z,6.71
2019-02-12T11:55:07.296Z,6.88
2019-02-12T11:57:37.674Z,7.04
2019-02-12T12:00:12.555Z,7.27
2019-02-12T12:02:47.790Z,7.25
2019-02-12T12:05:19.465Z,7.30
2019-02-12T12:07:49.964Z,7.04
2019-02-12T12:10:23.010Z,6.83
2019-02-12T12:12:53.226Z,6.72
2019-02-12T12:15:23.422Z,6.99
2019-02-12T12:17:54.296Z,7.15
2019-02-12T12:20:24.506Z,7.17
2019-02-12T12:22:54.670Z,7.23
2019-02-12T12:25:26.040Z,7.25
2019-02-12T12:27:56.200Z,7.43
2019-02-12T12:30:27.779Z,7.27
2019-02-12T12:32:58.366Z,6.96
2019-02-12T12:35:29.341Z,6.93
2019-02-12T12:37:59.902Z,6.91
2019-02-12T12:40:30.240Z,6.91
2019-02-12T12:43:00.645Z,7.10
2019-02-12T12:45:32.688Z,7.17
2019-02-12T12:48:05.633Z,7.19
2019-02-12T12:50:37.069Z,7.19
2019-02-12T12:53:09.378Z,7.21
2019-02-12T12:55:40.669Z,7.17
2019-02-12T12:58:11.212Z,7.21
2019-02-12T13:00:44.889Z,7.13
2019-02-12T13:03:15.231Z,7.31
2019-02-12T13:05:45.549Z,7.18
2019-02-12T13:08:16.816Z,6.94
2019-02-12T13:10:47.339Z,6.82
2019-02-12T13:13:18.174Z,6.86
2019-02-12T13:15:49.647Z,7.17
2019-02-12T13:18:33.930Z,7.36
2019-02-12T13:21:13.069Z,7.46
2019-02-12T13:23:42.674Z,7.59
2019-02-12T13:26:17.137Z,7.56
2019-02-12T13:28:47.741Z,7.76
2019-02-12T13:31:17.941Z,7.80
2019-02-12T13:33:49.228Z,7.68
2019-02-12T13:36:19.433Z,7.61
2019-02-12T13:38:49.617Z,7.53
2019-02-12T13:41:50.727Z,7.68
2019-02-12T13:47:17.235Z,7.55
2019-02-12T13:49:47.664Z,7.46
2019-02-12T13:52:18.277Z,7.35
2019-02-12T13:54:50.140Z,7.36
2019-02-12T13:57:20.617Z,7.40
2019-02-12T13:59:52.317Z,7.19
2019-02-12T14:02:52.217Z,7.27
2019-02-12T14:05:22.560Z,7.07
2019-02-12T14:07:55.116Z,7.01
2019-02-12T14:10:25.292Z,7.12
2019-02-12T14:12:55.559Z,7.19
2019-02-12T14:15:25.713Z,7.32
2019-02-12T14:17:58.029Z,7.45
2019-02-12T14:20:28.209Z,7.46
2019-02-12T14:22:58.554Z,7.37
2019-02-12T14:25:31.082Z,7.22
2019-02-12T14:28:01.437Z,7.21
2019-02-12T14:30:32.779Z,7.18
2019-02-12T14:33:03.719Z,7.12
2019-02-12T14:35:35.549Z,7.07
2019-02-12T14:38:06.083Z,7.18
2019-02-12T14:40:36.266Z,7.24
2019-02-12T14:43:13.883Z,7.15
2019-02-12T14:45:55.840Z,7.12
2019-02-12T14:48:26.366Z,7.03
2019-02-12T14:50:57.369Z,7.17
2019-02-12T14:53:31.111Z,7.07
2019-02-12T14:56:01.235Z,7.09
2019-02-12T14:58:34.393Z,6.97
2019-02-12T15:01:05.850Z,6.98
2019-02-12T15:03:36.098Z,7.01
2019-02-12T15:06:06.274Z,7.16
2019-02-12T15:08:36.724Z,7.18
2019-02-12T15:11:08.567Z,7.18
2019-02-12T15:13:38.910Z,7.18
2019-02-12T15:16:09.514Z,7.14
2019-02-12T15:18:39.764Z,7.12
2019-02-12T15:21:09.940Z,7.21
2019-02-12T15:23:40.201Z,7.19
2019-02-12T15:26:10.488Z,7.28
2019-02-12T15:28:40.712Z,7.18
2019-02-12T15:31:11.484Z,7.22
2019-02-12T15:33:49.928Z,7.38
2019-02-12T15:36:25.073Z,7.36
2019-02-12T15:38:58.369Z,7.25
2019-02-12T15:41:29.618Z,7.19
2019-02-12T15:44:05.662Z,7.15
2019-02-12T15:46:37.914Z,7.06
2019-02-12T15:49:08.358Z,6.91
2019-02-12T15:51:40.256Z,6.94
2019-02-12T15:54:10.627Z,7.08
2019-02-12T15:56:40.856Z,7.02
2019-02-12T15:59:12.314Z,6.98
2019-02-12T16:01:42.988Z,6.87
2019-02-12T16:04:13.280Z,6.89
2019-02-12T16:06:47.702Z,6.79
2019-02-12T16:09:18.230Z,6.55
2019-02-12T16:11:50.505Z,6.60
2019-02-12T16:14:21.485Z,6.50
2019-02-12T16:19:45.209Z,6.43
2019-02-12T16:22:16.448Z,6.54
2019-02-12T16:24:46.720Z,6.38
2019-02-12T16:27:17.071Z,6.23
2019-02-12T16:29:48.497Z,6.11
2019-02-12T16:32:18.819Z,6.19
2019-02-12T16:34:53.582Z,6.38
2019-02-12T16:37:25.659Z,6.28
2019-02-12T16:39:56.319Z,6.25
2019-02-12T16:42:49.205Z,6.26
2019-02-12T16:45:23.219Z,6.33
2019-02-12T16:47:55.161Z,6.37
2019-02-12T16:50:48.441Z,6.37
2019-02-12T16:53:20.543Z,6.29
2019-02-12T16:55:50.920Z,6.24
2019-02-12T16:58:22.657Z,6.14
2019-02-12T17:00:53.059Z,6.01
2019-02-12T17:03:24.463Z,6.01
2019-02-12T17:05:55.426Z,6.02
2019-02-12T17:08:26.547Z,5.94
2019-02-12T17:10:56.981Z,5.89
2019-02-12T17:13:27.398Z,5.83
2019-02-12T17:15:59.914Z,5.85
2019-02-12T17:18:31.640Z,5.88
2019-02-12T17:21:07.359Z,5.86
2019-02-12T17:23:37.714Z,5.66
2019-02-12T17:26:16.125Z,5.76
2019-02-12T17:28:41.747Z,5.79
2019-02-12T17:31:12.420Z,5.74
2019-02-12T17:33:44.027Z,5.77
2019-02-12T17:36:17.147Z,5.71
2019-02-12T17:38:47.467Z,5.64
2019-02-12T17:41:19.121Z,5.61
2019-02-12T17:43:50.479Z,5.63
2019-02-12T17:46:25.454Z,5.63
2019-02-12T17:49:01.922Z,5.51
2019-02-12T17:51:32.710Z,5.54
2019-02-12T17:54:21.161Z,5.64
2019-02-12T17:56:52.859Z,5.66
2019-02-12T17:59:26.188Z,5.60
2019-02-12T18:01:56.885Z,5.64
2019-02-12T18:04:31.125Z,5.54
2019-02-12T18:07:01.543Z,5.48
2019-02-12T18:09:31.806Z,5.57
2019-02-12T18:12:02.015Z,5.48
2019-02-12T18:14:33.769Z,5.52
2019-02-12T18:17:04.051Z,5.50
2019-02-12T18:19:34.298Z,5.50
2019-02-12T18:22:05.566Z,5.54
2019-02-12T18:24:35.864Z,5.44
2019-02-12T18:27:09.297Z,5.38
2019-02-12T18:29:39.685Z,5.32
2019-02-12T18:32:10.121Z,5.34
2019-02-12T18:34:40.843Z,5.23
2019-02-12T18:37:11.384Z,5.26
2019-02-12T18:39:41.772Z,5.23
2019-02-12T18:42:12.384Z,5.20
2019-02-12T18:44:42.808Z,5.20
2019-02-12T18:47:13.510Z,5.15
2019-02-12T18:49:54.672Z,5.21
2019-02-12T18:52:28.790Z,5.25
2019-02-12T18:54:59.082Z,5.25
2019-02-12T18:57:31.207Z,5.18
2019-02-12T19:00:01.874Z,5.17
2019-02-12T19:02:36.535Z,5.23
2019-02-12T19:05:07.435Z,5.21
2019-02-12T19:07:39.236Z,5.18
2019-02-12T19:10:11.908Z,5.20
2019-02-12T19:12:44.562Z,5.19
2019-02-12T19:15:20.413Z,5.21
2019-02-12T19:18:58.868Z,5.15
2019-02-12T19:21:31.470Z,5.19
2019-02-12T19:24:07.869Z,5.21
2019-02-12T19:26:49.724Z,5.16
2019-02-12T19:29:41.788Z,5.19
2019-02-12T19:32:13.343Z,5.23
2019-02-12T19:34:47.532Z,5.22
2019-02-12T19:37:18.252Z,5.26
2019-02-12T19:39:49.291Z,5.16
2019-02-12T19:42:19.773Z,5.26
2019-02-12T19:44:51.589Z,5.25
2019-02-12T19:47:22.457Z,5.14
2019-02-12T19:49:58.896Z,5.20
2019-02-12T19:52:59.266Z,5.21
2019-02-12T19:55:25.145Z,5.25
2019-02-12T19:57:55.444Z,5.23
2019-02-12T20:00:25.867Z,5.20
2019-02-12T20:02:56.176Z,5.22
2019-02-12T20:05:31.286Z,5.20
2019-02-12T20:08:01.549Z,5.13
2019-02-12T20:10:31.905Z,5.13
2019-02-12T20:13:02.435Z,5.07
2019-02-12T20:15:34.866Z,5.14
2019-02-12T20:18:05.896Z,5.09
2019-02-12T20:20:37.996Z,5.10
2019-02-12T20:23:12.876Z,5.18
2019-02-12T20:25:54.178Z,5.15
2019-02-12T20:28:24.592Z,5.20
2019-02-12T20:30:54.861Z,5.13
2019-02-12T20:33:25.026Z,5.24
2019-02-12T20:35:56.866Z,5.15
2019-02-12T20:38:27.427Z,5.10
2019-02-12T20:41:00.335Z,5.07
2019-02-12T20:43:32.678Z,5.11
2019-02-12T20:46:06.930Z,5.13
2019-02-12T20:48:49.059Z,5.13
2019-02-12T20:51:19.645Z,5.07
2019-02-12T20:53:51.239Z,5.02
2019-02-12T20:56:38.679Z,4.99
2019-02-12T20:59:22.539Z,5.06
2019-02-12T21:01:52.841Z,5.01
2019-02-12T21:04:23.090Z,5.13
2019-02-12T21:07:03.606Z,5.16
2019-02-12T21:09:29.018Z,5.19
2019-02-12T21:11:59.274Z,5.12
2019-02-12T21:14:33.544Z,5.18
2019-02-12T21:17:04.708Z,5.18
2019-02-12T21:19:34.985Z,5.24
2019-02-12T21:22:06.327Z,5.19
2019-02-12T21:24:36.912Z,5.27
2019-02-12T21:27:07.196Z,5.26
2019-02-12T21:29:40.447Z,5.28
2019-02-12T21:32:10.966Z,5.31
2019-02-12T21:34:41.333Z,5.26
2019-02-12T21:37:11.756Z,5.32
2019-02-12T21:39:44.481Z,5.20
2019-02-12T21:42:17.880Z,5.26
2019-02-12T21:44:48.365Z,5.40
2019-02-12T21:47:18.963Z,5.38
2019-02-12T21:49:50.822Z,5.43
2019-02-12T21:52:21.057Z,5.51
2019-02-12T21:54:51.365Z,5.49
2019-02-12T21:57:21.880Z,5.53
2019-02-12T21:59:55.344Z,5.56
2019-02-12T22:02:25.835Z,5.53
2019-02-12T22:04:58.404Z,5.52
2019-02-12T22:07:28.613Z,5.54
2019-02-12T22:09:59.293Z,5.56
2019-02-12T22:12:29.627Z,5.54
2019-02-12T22:14:59.943Z,5.55
2019-02-12T22:17:30.246Z,5.53
2019-02-12T22:20:00.945Z,5.58
2019-02-12T22:22:32.070Z,5.51
2019-02-12T22:25:02.347Z,5.50
2019-02-12T22:27:40.047Z,5.58
2019-02-12T22:30:09.625Z,5.67
2019-02-12T22:32:40.723Z,5.67
2019-02-12T22:35:11.118Z,5.56
2019-02-12T22:37:42.284Z,5.55
2019-02-12T22:40:18.067Z,5.70
2019-02-12T22:42:48.372Z,5.75
2019-02-12T22:45:19.788Z,5.71
2019-02-12T22:47:50.339Z,5.77
2019-02-12T22:50:21.033Z,5.79
2019-02-12T22:52:51.452Z,5.76
2019-02-12T22:55:23.140Z,5.76
2019-02-12T22:57:58.137Z,5.71
2019-02-12T23:00:54.306Z,5.66
2019-02-12T23:03:26.633Z,5.69
2019-02-12T23:05:56.958Z,5.76
2019-02-12T23:08:28.882Z,5.79
2019-02-12T23:10:59.442Z,5.76
2019-02-12T23:13:29.707Z,5.87
2019-02-12T23:16:00.044Z,5.88
2019-02-12T23:18:30.760Z,5.86
2019-02-12T23:21:01.060Z,5.97
2019-02-12T23:23:35.295Z,5.94
2019-02-12T23:26:06.450Z,5.94
2019-02-12T23:28:36.657Z,5.88
2019-02-12T23:31:06.806Z,5.99
2019-02-12T23:33:37.136Z,5.98
2019-02-12T23:36:07.460Z,6.01
2019-02-12T23:38:37.725Z,5.89
2019-02-12T23:41:12.046Z,5.99
2019-02-12T23:43:42.596Z,6.02
2019-02-12T23:46:13.586Z,6.07
2019-02-12T23:48:44.682Z,6.12
2019-02-12T23:51:14.827Z,6.07
2019-02-12T23:53:47.272Z,6.05
2019-02-12T23:56:18.172Z,6.10
2019-02-12T23:58:48.436Z,6.14
